Time;durP1;ratioP1;P1;durP2;ratioP2;P2;SDS_P1;SDS_P2;PMS_P1;PMS_P2;Temp;Humidity;BMP_temperature;BMP_pressure;BME280_temperature;BME280_humidity;BME280_pressure;Samples;Min_cycle;Max_cycle;Signal;HPM_P1;HPM_P2
2021/08/30 00:01:51;;;;;;;5.83;2.70;;;;;;;27.26;32.83;99922.41;1718513;83;21567;-69
2021/08/30 00:04:17;;;;;;;6.30;2.90;;;;;;;27.43;32.70;99929.00;1711994;83;21015;-68
2021/08/30 00:06:45;;;;;;;5.97;3.17;;;;;;;27.28;32.75;99928.27;1710390;83;22256;-72
2021/08/30 00:09:13;;;;;;;6.93;2.53;;;;;;;27.32;32.71;99927.91;1671154;85;21165;-69
2021/08/30 00:11:41;;;;;;;7.87;2.77;;;;;;;27.31;32.68;99930.88;1698007;83;21521;-69
2021/08/30 00:14:08;;;;;;;5.03;2.90;;;;;;;27.39;32.68;99924.27;1669552;85;21036;-68
2021/08/30 00:16:36;;;;;;;7.80;3.20;;;;;;;27.35;32.69;99924.63;1708501;83;20940;-68
2021/08/30 00:19:03;;;;;;;6.93;3.33;;;;;;;27.56;32.36;99921.47;1667381;85;21812;-69
2021/08/30 00:21:31;;;;;;;6.80;3.67;;;;;;;27.43;32.52;99920.97;1707193;83;22539;-68
2021/08/30 00:23:57;;;;;;;7.73;3.20;;;;;;;27.46;32.44;99925.72;1669185;84;21064;-68
2021/08/30 00:26:25;;;;;;;7.47;2.97;;;;;;;27.53;32.31;99928.22;1703025;83;21031;-68
2021/08/30 00:28:52;;;;;;;5.87;3.00;;;;;;;27.41;32.32;99920.73;1672521;85;21588;-70
2021/08/30 00:31:20;;;;;;;6.53;3.13;;;;;;;27.46;32.16;99920.36;1699171;83;21503;-68
2021/08/30 00:33:46;;;;;;;4.53;2.60;;;;;;;27.40;31.99;99918.37;1665939;84;21127;-68
2021/08/30 00:36:14;;;;;;;6.23;2.37;;;;;;;27.24;32.20;99917.93;1699366;83;21588;-68
2021/08/30 00:38:41;;;;;;;5.03;2.33;;;;;;;27.40;31.85;99912.46;1701539;83;21035;-68
2021/08/30 00:41:09;;;;;;;5.50;2.67;;;;;;;27.48;31.64;99922.98;1664456;84;21122;-71
2021/08/30 00:43:36;;;;;;;4.20;2.50;;;;;;;27.46;31.57;99919.02;1698703;83;21166;-69
2021/08/30 00:46:02;;;;;;;8.07;2.17;;;;;;;27.49;31.57;99922.44;1672989;85;20936;-68
2021/08/30 00:48:29;;;;;;;4.90;2.50;;;;;;;27.44;31.64;99919.34;1672633;85;21422;-68
2021/08/30 00:50:57;;;;;;;6.10;2.60;;;;;;;27.34;31.51;99916.34;1701311;83;21508;-70
2021/08/30 00:53:24;;;;;;;4.63;2.83;;;;;;;27.35;31.43;99921.14;1687810;83;21090;-71
2021/08/30 00:55:52;;;;;;;5.73;2.73;;;;;;;27.22;31.69;99926.80;1708755;83;21576;-68
2021/08/30 00:58:18;;;;;;;6.70;2.60;;;;;;;27.16;31.57;99922.11;1670486;85;21060;-68
2021/08/30 01:00:44;;;;;;;9.90;2.77;;;;;;;27.26;31.43;99931.78;1706491;83;20940;-68
2021/08/30 01:03:11;;;;;;;4.43;2.40;;;;;;;27.29;31.40;99936.54;1698211;83;21035;-68
2021/08/30 01:05:40;;;;;;;6.33;2.57;;;;;;;27.39;31.28;99937.66;1665025;85;21205;-67
2021/08/30 01:08:18;;;;;;;7.17;3.00;;;;;;;27.38;31.39;99938.73;1708360;83;21158;-67
2021/08/30 01:11:08;;;;;;;7.23;3.63;;;;;;;27.35;31.21;99935.34;1699319;83;21047;-68
2021/08/30 01:13:42;;;;;;;9.90;3.30;;;;;;;27.46;31.30;99941.78;1705282;83;21568;-68
2021/08/30 01:16:11;;;;;;;8.37;3.60;;;;;;;27.31;31.40;99941.58;1700767;83;21170;-68
2021/08/30 01:18:37;;;;;;;4.90;2.73;;;;;;;27.20;31.61;99940.22;1673256;85;21004;-71
2021/08/30 01:21:21;;;;;;;5.63;2.63;;;;;;;27.21;31.53;99937.81;1659637;85;21176;-68
2021/08/30 01:24:08;;;;;;;6.37;2.80;;;;;;;27.13;31.71;99937.98;1701413;83;21047;-68
2021/08/30 01:26:39;;;;;;;4.13;2.33;;;;;;;27.00;31.64;99946.78;1694628;83;21172;-69
2021/08/30 01:29:37;;;;;;;8.78;2.92;;;;;;;26.90;31.52;99939.78;1654496;85;21060;-68
2021/08/30 01:32:09;;;;;;;10.47;3.23;;;;;;;26.91;31.42;99935.45;1674448;85;21564;-67
2021/08/30 01:34:36;;;;;;;4.07;2.27;;;;;;;26.81;31.46;99928.97;1679010;85;21072;-67
2021/08/30 01:37:03;;;;;;;6.50;2.70;;;;;;;26.81;31.56;99933.53;1713805;83;21066;-68
2021/08/30 01:39:30;;;;;;;7.47;2.53;;;;;;;26.73;31.58;99933.69;1711673;83;21086;-70
2021/08/30 01:41:58;;;;;;;5.63;2.60;;;;;;;26.75;31.47;99938.20;1713367;83;21603;-69
2021/08/30 01:44:26;;;;;;;4.33;2.17;;;;;;;26.79;31.44;99933.05;1714110;83;21136;-69
2021/08/30 01:46:53;;;;;;;7.57;3.27;;;;;;;26.86;31.25;99935.56;1663392;85;21272;-68
2021/08/30 01:49:20;;;;;;;7.37;2.67;;;;;;;26.94;31.21;99936.74;1714858;83;21569;-70
2021/08/30 01:51:48;;;;;;;13.83;4.00;;;;;;;26.97;31.00;99938.02;1731257;82;21094;-70
2021/08/30 01:54:15;;;;;;;6.87;2.83;;;;;;;27.07;30.85;99930.56;1677578;84;21529;-67
2021/08/30 01:56:47;;;;;;;5.43;2.70;;;;;;;27.19;30.72;99933.30;1673632;84;21610;-66
2021/08/30 02:01:54;;;;;;;4.47;2.50;;;;;;;27.01;30.95;99927.77;1673102;85;21101;-68
2021/08/30 02:04:20;;;;;;;4.10;2.30;;;;;;;26.90;30.98;99935.21;1713899;83;22074;-67
2021/08/30 02:06:47;;;;;;;5.63;2.53;;;;;;;26.60;31.29;99939.84;1712711;83;21588;-67
2021/08/30 02:09:15;;;;;;;9.30;3.10;;;;;;;26.69;31.12;99938.05;1668775;85;21506;-70
2021/08/30 02:11:42;;;;;;;5.00;2.40;;;;;;;26.82;31.03;99932.43;1711499;83;21164;-69
2021/08/30 02:14:08;;;;;;;8.10;2.97;;;;;;;26.88;30.92;99933.37;1679383;85;21056;-68
2021/08/30 02:16:36;;;;;;;4.90;2.40;;;;;;;26.69;31.02;99935.38;1714793;83;21041;-67
2021/08/30 02:19:43;;;;;;;4.97;2.57;;;;;;;26.79;31.09;99943.75;1715802;83;21032;-69
2021/08/30 02:22:31;;;;;;;6.87;2.93;;;;;;;26.35;31.60;99940.53;1709897;83;21158;-67
2021/08/30 02:25:03;;;;;;;8.87;2.93;;;;;;;26.46;31.46;99940.37;1677783;85;21166;-68
2021/08/30 02:27:54;;;;;;;7.17;3.07;;;;;;;26.33;31.64;99936.56;1714932;82;21442;-68
2021/08/30 02:30:24;;;;;;;4.47;2.60;;;;;;;26.12;31.94;99938.82;1681178;83;21028;-67
2021/08/30 02:32:57;;;;;;;6.30;2.77;;;;;;;26.43;31.67;99941.17;1676979;84;21138;-69
2021/08/30 02:35:28;;;;;;;6.23;2.87;;;;;;;26.26;31.86;99946.32;1678289;85;22100;-66
2021/08/30 02:37:54;;;;;;;7.83;2.80;;;;;;;26.65;31.42;99953.10;1666271;85;21848;-69
2021/08/30 02:40:22;;;;;;;6.63;2.80;;;;;;;26.53;31.73;99956.81;1694246;83;21023;-67
2021/08/30 02:42:50;;;;;;;5.43;2.57;;;;;;;26.62;31.63;99951.02;1710389;83;21352;-70
2021/08/30 02:45:16;;;;;;;6.10;2.73;;;;;;;26.61;31.53;99954.78;1714886;83;21028;-65
2021/08/30 02:47:43;;;;;;;6.67;2.97;;;;;;;26.52;31.73;99956.03;1676454;85;21052;-66
2021/08/30 02:50:10;;;;;;;5.50;2.57;;;;;;;26.40;31.87;99956.49;1716316;83;21083;-67
2021/08/30 02:52:38;;;;;;;6.33;2.90;;;;;;;26.25;32.08;99959.41;1716102;83;21048;-65
2021/08/30 02:55:06;;;;;;;4.23;2.30;;;;;;;26.31;32.13;99959.58;1678637;84;21142;-66
2021/08/30 02:57:34;;;;;;;6.13;3.20;;;;;;;26.29;32.22;99958.28;1713317;83;22069;-66
2021/08/30 03:00:01;;;;;;;4.33;2.40;;;;;;;25.72;32.96;99964.55;1678243;85;22411;-66
2021/08/30 03:02:28;;;;;;;5.87;2.53;;;;;;;25.78;33.09;99963.95;1682308;82;21495;-68
2021/08/30 03:04:55;;;;;;;6.70;2.97;;;;;;;25.69;33.19;99966.46;1701843;82;21104;-68
2021/08/30 03:07:24;;;;;;;9.13;3.57;;;;;;;25.58;33.42;99974.91;1697150;83;21114;-71
2021/08/30 03:09:50;;;;;;;6.87;3.03;;;;;;;26.06;32.89;99970.70;1668724;83;21170;-67
2021/08/30 03:12:18;;;;;;;8.73;3.00;;;;;;;26.27;32.48;99965.27;1692535;82;21458;-65
2021/08/30 03:14:47;;;;;;;4.97;2.33;;;;;;;26.38;32.37;99975.23;1689312;83;21476;-65
2021/08/30 03:17:14;;;;;;;6.97;3.23;;;;;;;26.64;32.03;99975.59;1691392;82;21083;-67
2021/08/30 03:19:45;;;;;;;7.13;3.33;;;;;;;26.41;32.09;99975.44;1689672;83;22266;-65
2021/08/30 03:22:12;;;;;;;4.13;2.40;;;;;;;26.40;32.08;99972.52;1693013;82;21101;-65
2021/08/30 03:24:41;;;;;;;8.10;2.80;;;;;;;26.19;32.35;99969.41;1674307;83;21095;-65
2021/08/30 03:27:09;;;;;;;7.27;2.80;;;;;;;26.11;32.58;99978.65;1693163;82;21105;-71
2021/08/30 03:29:38;;;;;;;6.35;2.75;;;;;;;26.30;32.47;99974.58;1689162;83;21151;-66
2021/08/30 03:32:08;;;;;;;9.23;3.17;;;;;;;26.29;32.45;99979.14;1694610;82;21094;-68
2021/08/30 03:34:36;;;;;;;;;;;;;;;26.64;32.07;99982.27;1691573;83;21052;-66
2021/08/30 03:37:04;;;;;;;6.73;2.77;;;;;;;26.94;31.63;99984.89;1711706;82;20147;-74
2021/08/30 03:39:30;;;;;;;4.70;2.70;;;;;;;27.26;31.21;99983.18;1706371;83;21186;-66
2021/08/30 03:41:57;;;;;;;6.33;2.70;;;;;;;27.23;31.21;99981.89;1693792;83;22195;-64
2021/08/30 03:44:24;;;;;;;7.07;2.83;;;;;;;27.32;31.06;99985.45;1681202;83;21090;-64
2021/08/30 03:46:54;;;;;;;4.57;2.80;;;;;;;27.28;31.11;99982.34;1660713;84;20940;-68
2021/08/30 03:49:21;;;;;;;5.70;3.33;;;;;;;27.34;30.87;99981.91;1702214;83;21051;-67
2021/08/30 03:51:48;;;;;;;6.77;2.80;;;;;;;27.20;31.02;99991.88;1694855;83;21058;-68
2021/08/30 03:54:14;;;;;;;6.13;2.87;;;;;;;27.06;31.35;99989.73;1715519;82;21181;-66
2021/08/30 03:56:41;;;;;;;8.27;2.63;;;;;;;27.05;31.32;99996.16;1683029;84;21075;-66
2021/08/30 03:59:09;;;;;;;6.33;2.67;;;;;;;26.88;31.65;99995.44;1719170;82;20907;-66
2021/08/30 04:01:40;;;;;;;5.20;3.13;;;;;;;26.88;31.61;99994.88;1720942;82;21021;-73
2021/08/30 04:04:04;;;;;;;6.87;2.93;;;;;;;26.86;31.80;100000.30;1672758;84;21149;-65
2021/08/30 04:06:33;;;;;;;5.60;2.97;;;;;;;27.13;31.59;100001.64;1699995;83;21066;-65
2021/08/30 04:08:59;;;;;;;8.50;3.43;;;;;;;27.13;31.79;100002.98;1691881;83;21007;-64
2021/08/30 04:11:27;;;;;;;6.67;3.60;;;;;;;27.22;31.80;99990.23;1700862;83;20994;-66
2021/08/30 04:13:54;;;;;;;7.70;3.73;;;;;;;27.27;31.79;99998.14;1727127;81;20992;-69
2021/08/30 04:16:23;;;;;;;6.83;3.93;;;;;;;27.35;31.80;99991.55;1734685;81;21453;-62
2021/08/30 04:18:49;;;;;;;7.47;4.33;;;;;;;27.41;31.66;99995.67;1730093;81;20992;-65
2021/08/30 04:21:17;;;;;;;8.87;4.93;;;;;;;27.30;31.93;99992.98;1735359;81;21051;-65
2021/08/30 04:23:45;;;;;;;10.43;4.80;;;;;;;27.40;32.08;99991.42;1722340;81;21579;-72
2021/08/30 04:26:11;;;;;;;9.57;4.20;;;;;;;27.92;31.20;99995.63;1725385;82;21138;-67
2021/08/30 04:28:38;;;;;;;7.80;4.33;;;;;;;28.60;30.59;99999.28;1693776;83;21161;-67
2021/08/30 04:31:04;;;;;;;6.87;3.07;;;;;;;29.12;29.80;99994.63;1726256;83;20914;-68
2021/08/30 04:33:31;;;;;;;7.10;3.33;;;;;;;29.84;28.90;99997.84;1723732;81;20874;-65
2021/08/30 04:35:58;;;;;;;7.00;3.57;;;;;;;30.33;28.51;99995.70;1712904;82;20938;-67
2021/08/30 04:38:24;;;;;;;7.90;3.70;;;;;;;30.69;27.83;99996.03;1693239;84;22358;-68
2021/08/30 04:40:50;;;;;;;8.63;2.73;;;;;;;31.29;27.17;99998.70;1713724;83;21114;-66
2021/08/30 04:43:17;;;;;;;6.00;3.43;;;;;;;31.64;26.80;99992.52;1718140;82;21015;-67
2021/08/30 04:45:44;;;;;;;5.27;3.30;;;;;;;31.89;26.51;99992.06;1688066;83;20995;-71
2021/08/30 04:48:12;;;;;;;5.27;3.03;;;;;;;32.10;25.93;99992.02;1722462;81;22595;-66
2021/08/30 04:50:38;;;;;;;7.77;3.73;;;;;;;32.40;25.75;99999.41;1716312;82;20974;-66
2021/08/30 04:53:05;;;;;;;9.78;3.37;;;;;;;32.60;25.43;99999.86;1692867;84;21214;-65
2021/08/30 04:55:32;;;;;;;7.67;3.40;;;;;;;32.38;25.51;100002.95;1721684;83;20966;-65
2021/08/30 04:57:59;;;;;;;5.25;3.10;;;;;;;32.37;25.48;99997.34;1677151;83;20943;-65
2021/08/30 05:00:26;;;;;;;6.35;2.87;;;;;;;32.21;25.29;99993.95;1688813;83;21109;-64
2021/08/30 05:02:52;;;;;;;6.40;4.10;;;;;;;31.33;26.21;99991.03;1681955;84;21011;-65
2021/08/30 05:05:19;;;;;;;5.42;3.50;;;;;;;31.45;26.08;99998.39;1678456;84;21136;-64
2021/08/30 05:07:45;;;;;;;8.18;3.90;;;;;;;31.35;26.38;99994.73;1678952;84;21075;-73
2021/08/30 05:10:13;;;;;;;5.62;3.58;;;;;;;31.40;26.25;99994.53;1683527;84;20963;-64
2021/08/30 05:12:41;;;;;;;7.72;3.72;;;;;;;31.16;26.68;99999.98;1718476;83;21080;-65
2021/08/30 05:15:08;;;;;;;7.60;3.15;;;;;;;30.67;27.39;100000.16;1719615;82;21037;-64
2021/08/30 05:17:35;;;;;;;5.83;3.90;;;;;;;30.67;27.72;99994.77;1720642;82;21132;-65
2021/08/30 05:20:05;;;;;;;6.33;3.80;;;;;;;31.00;27.53;99990.91;1717937;82;20874;-66
2021/08/30 05:22:31;;;;;;;9.28;3.98;;;;;;;31.16;27.60;99991.91;1718675;83;22292;-63
2021/08/30 05:24:58;;;;;;;6.60;3.77;;;;;;;31.85;26.97;99988.43;1714372;82;21510;-65
2021/08/30 05:27:25;;;;;;;6.47;4.50;;;;;;;32.38;26.56;99995.65;1718913;82;21027;-64
2021/08/30 05:29:54;;;;;;;8.65;3.90;;;;;;;32.92;25.74;99993.31;1720752;82;21156;-70
2021/08/30 05:32:22;;;;;;;7.95;4.25;;;;;;;33.11;25.67;99990.86;1718527;83;21100;-64
2021/08/30 05:34:48;;;;;;;6.10;3.75;;;;;;;33.33;25.83;99992.81;1706701;82;21028;-64
2021/08/30 05:37:15;;;;;;;6.12;4.17;;;;;;;33.56;25.22;99992.52;1694136;83;21033;-65
2021/08/30 05:39:42;;;;;;;9.18;3.40;;;;;;;33.48;25.46;99994.03;1707035;83;20982;-71
2021/08/30 05:42:09;;;;;;;5.53;3.27;;;;;;;33.65;25.03;99989.12;1718355;82;22607;-65
2021/08/30 05:44:35;;;;;;;7.15;3.87;;;;;;;33.57;24.88;99991.41;1719988;82;21090;-65
2021/08/30 05:47:03;;;;;;;5.85;3.50;;;;;;;33.54;25.21;99990.75;1720146;82;21079;-65
2021/08/30 05:49:29;;;;;;;7.60;4.05;;;;;;;33.72;24.72;99987.73;1715397;82;20959;-65
2021/08/30 05:51:58;;;;;;;7.65;3.85;;;;;;;33.37;25.34;99986.37;1682760;83;21039;-67
2021/08/30 05:54:25;;;;;;;12.18;4.00;;;;;;;33.17;25.77;99988.13;1718744;83;21142;-66
2021/08/30 05:56:52;;;;;;;6.42;3.60;;;;;;;33.34;25.91;99984.95;1715850;83;21059;-66
2021/08/30 05:59:18;;;;;;;9.98;4.58;;;;;;;33.90;25.46;99984.94;1719680;82;20999;-65
2021/08/30 06:01:45;;;;;;;8.18;4.22;;;;;;;34.10;25.07;99975.06;1675030;84;20992;-67
2021/08/30 06:04:11;;;;;;;7.37;5.50;;;;;;;34.14;25.05;99982.70;1703318;84;21527;-65
2021/08/30 06:06:38;;;;;;;8.70;4.95;;;;;;;34.14;25.02;99989.46;1677077;84;21222;-66
2021/08/30 06:09:04;;;;;;;11.20;5.87;;;;;;;34.30;24.73;99990.24;1683841;85;20944;-66
2021/08/30 06:11:31;;;;;;;10.00;5.28;;;;;;;34.39;24.78;99986.78;1706274;84;20932;-65
2021/08/30 06:13:58;;;;;;;8.95;5.17;;;;;;;34.59;24.61;99986.34;1682192;83;21031;-69
2021/08/30 06:16:25;;;;;;;9.93;4.87;;;;;;;34.59;24.50;99976.86;1705775;84;21407;-65
2021/08/30 06:18:51;;;;;;;10.80;4.85;;;;;;;34.76;24.19;99975.68;1670405;84;22483;-69
2021/08/30 06:21:18;;;;;;;9.48;4.12;;;;;;;35.14;24.08;99975.56;1663248;83;21025;-67
2021/08/30 06:23:45;;;;;;;10.88;5.80;;;;;;;35.07;24.20;99975.41;1685016;84;21071;-67
2021/08/30 06:26:12;;;;;;;11.28;5.12;;;;;;;35.76;23.78;99978.33;1656695;85;21627;-73
2021/08/30 06:28:38;;;;;;;11.15;5.75;;;;;;;36.22;23.42;99971.04;1681006;84;21124;-69
2021/08/30 06:31:05;;;;;;;14.45;5.90;;;;;;;36.50;23.31;99973.43;1656859;84;21148;-68
2021/08/30 06:33:32;;;;;;;12.10;5.65;;;;;;;37.21;22.50;99975.59;1679427;84;20996;-68
2021/08/30 06:35:59;;;;;;;8.93;5.08;;;;;;;37.64;22.36;99982.89;1700558;82;21064;-70
2021/08/30 06:38:25;;;;;;;12.70;4.85;;;;;;;37.69;22.09;99977.11;1682369;83;21083;-73
2021/08/30 06:40:52;;;;;;;9.35;5.37;;;;;;;37.59;21.97;99980.52;1701956;84;21022;-67
2021/08/30 06:43:19;;;;;;;8.00;4.42;;;;;;;37.80;22.06;99979.94;1679583;83;21521;-67
2021/08/30 06:45:47;;;;;;;11.25;5.35;;;;;;;37.72;22.01;99981.22;1702528;83;21071;-67
2021/08/30 06:48:14;;;;;;;6.72;4.80;;;;;;;37.39;22.43;99974.42;1677142;85;21024;-71
2021/08/30 06:50:42;;;;;;;11.05;5.28;;;;;;;37.61;22.40;99980.91;1702215;84;21076;-67
2021/08/30 06:53:12;;;;;;;9.40;5.30;;;;;;;37.61;22.52;99978.19;1680925;83;21108;-67
2021/08/30 06:55:37;;;;;;;9.55;5.60;;;;;;;37.61;22.57;99976.83;1702990;84;21164;-68
2021/08/30 06:58:04;;;;;;;9.68;5.45;;;;;;;37.86;22.90;99971.06;1670512;85;20986;-72
2021/08/30 07:00:30;;;;;;;10.68;5.62;;;;;;;38.07;23.24;99974.56;1681193;85;21095;-67
2021/08/30 07:02:57;;;;;;;13.22;6.42;;;;;;;38.54;22.49;99970.87;1673488;83;21497;-67
2021/08/30 07:05:23;;;;;;;9.88;5.60;;;;;;;38.89;21.57;99971.09;1661305;86;22029;-66
2021/08/30 07:07:49;;;;;;;8.25;5.17;;;;;;;38.88;21.60;99966.82;1661685;86;21183;-64
2021/08/30 07:10:16;;;;;;;9.73;4.90;;;;;;;38.73;21.85;99973.33;1660764;85;20895;-66
2021/08/30 07:12:42;;;;;;;8.33;5.87;;;;;;;38.79;21.68;99965.00;1661533;85;21173;-71
2021/08/30 07:15:10;;;;;;;9.30;6.20;;;;;;;38.69;21.83;99967.08;1660942;86;21069;-65
2021/08/30 07:17:37;;;;;;;9.40;6.08;;;;;;;38.87;21.86;99969.35;1662673;86;21091;-66
2021/08/30 07:20:05;;;;;;;10.13;6.37;;;;;;;38.66;21.92;99965.11;1661385;85;21146;-67
2021/08/30 07:22:32;;;;;;;10.85;6.25;;;;;;;38.88;22.06;99955.14;1660194;86;20953;-67
2021/08/30 07:24:58;;;;;;;9.50;5.90;;;;;;;39.01;22.14;99946.81;1662753;86;21075;-68
2021/08/30 07:27:25;;;;;;;12.03;7.05;;;;;;;39.09;21.90;99954.44;1664311;85;20936;-66
2021/08/30 07:29:51;;;;;;;10.78;6.33;;;;;;;39.25;21.87;99953.56;1664578;86;21086;-66
2021/08/30 07:32:18;;;;;;;11.68;6.85;;;;;;;39.16;21.86;99955.24;1664263;86;21176;-66
2021/08/30 07:34:45;;;;;;;10.20;6.70;;;;;;;39.01;21.76;99974.66;1652914;86;21039;-66
2021/08/30 07:37:11;;;;;;;11.85;6.97;;;;;;;39.23;21.96;99959.17;1664281;86;21062;-67
2021/08/30 07:39:37;;;;;;;8.15;6.10;;;;;;;39.33;21.78;99965.28;1653248;86;21036;-65
2021/08/30 07:42:05;;;;;;;8.30;6.97;;;;;;;39.06;22.12;99962.02;1664429;85;21012;-66
2021/08/30 07:44:32;;;;;;;11.88;6.20;;;;;;;39.11;22.32;99957.57;1664114;85;21514;-67
2021/08/30 07:47:00;;;;;;;12.10;7.17;;;;;;;38.97;22.33;99947.97;1664672;85;21119;-64
2021/08/30 07:49:27;;;;;;;18.00;7.25;;;;;;;38.97;22.52;99962.95;1663827;85;21024;-66
2021/08/30 07:51:53;;;;;;;14.25;7.33;;;;;;;38.99;22.36;99947.02;1652943;86;21637;-67
2021/08/30 07:54:20;;;;;;;12.13;7.37;;;;;;;39.26;22.33;99940.13;1664163;86;21008;-66
2021/08/30 07:56:46;;;;;;;12.53;7.42;;;;;;;39.46;22.17;99947.37;1652767;85;21134;-66
2021/08/30 07:59:13;;;;;;;10.38;7.17;;;;;;;39.50;21.54;99940.56;1663903;86;21073;-68
2021/08/30 08:01:40;;;;;;;12.68;7.28;;;;;;;39.29;22.12;99944.04;1664083;85;21278;-65
2021/08/30 08:04:06;;;;;;;15.88;7.42;;;;;;;39.65;21.90;99940.78;1712048;83;21462;-65
2021/08/30 08:06:33;;;;;;;10.48;7.08;;;;;;;39.59;21.75;99928.68;1722381;83;20998;-67
2021/08/30 08:09:00;;;;;;;12.15;7.35;;;;;;;39.26;21.73;99936.03;1691890;82;21327;-65
2021/08/30 08:11:27;;;;;;;11.35;7.25;;;;;;;39.38;22.36;99931.58;1713012;82;21106;-68
2021/08/30 08:13:53;;;;;;;10.88;7.40;;;;;;;39.50;21.52;99929.06;1687486;83;22217;-67
2021/08/30 08:16:21;;;;;;;12.53;7.40;;;;;;;39.37;21.67;99930.03;1722686;83;20978;-68
2021/08/30 08:18:48;;;;;;;14.23;8.30;;;;;;;39.41;21.81;99936.27;1724911;83;21084;-69
2021/08/30 08:21:14;;;;;;;10.35;8.25;;;;;;;39.53;21.65;99925.57;1692573;84;21282;-69
2021/08/30 08:23:41;;;;;;;9.90;7.75;;;;;;;39.68;21.39;99925.03;1723295;81;21499;-66
2021/08/30 08:26:08;;;;;;;10.68;8.28;;;;;;;39.61;21.59;99925.00;1683855;83;21098;-66
2021/08/30 08:28:34;;;;;;;13.35;8.35;;;;;;;39.68;21.68;99923.67;1722858;82;20986;-68
2021/08/30 08:31:01;;;;;;;13.03;7.83;;;;;;;39.62;21.30;99915.05;1722041;83;21022;-67
2021/08/30 08:33:28;;;;;;;11.18;7.28;;;;;;;39.64;21.26;99914.67;1722365;83;21090;-69
2021/08/30 08:35:55;;;;;;;10.45;7.53;;;;;;;39.61;21.25;99922.27;1712036;82;21041;-67
2021/08/30 08:38:23;;;;;;;9.98;8.05;;;;;;;39.68;21.41;99907.30;1723054;82;20985;-66
2021/08/30 08:40:51;;;;;;;12.13;8.98;;;;;;;39.63;21.54;99907.08;1711235;82;20979;-67
2021/08/30 08:43:19;;;;;;;12.73;8.73;;;;;;;39.69;21.07;99907.48;1721945;83;20943;-66
2021/08/30 08:45:46;;;;;;;11.70;8.15;;;;;;;39.60;21.27;99901.62;1722026;83;21393;-66
2021/08/30 08:48:13;;;;;;;11.53;8.93;;;;;;;39.62;21.04;99911.55;1722450;83;20998;-65
2021/08/30 08:50:40;;;;;;;10.78;9.58;;;;;;;39.59;21.29;99908.22;1695943;82;20891;-66
2021/08/30 08:53:06;;;;;;;10.85;9.48;;;;;;;39.54;21.11;99901.80;1722158;81;21539;-68
2021/08/30 08:55:34;;;;;;;11.38;10.18;;;;;;;39.55;20.94;99901.98;1705392;82;21004;-67
2021/08/30 08:58:18;;;;;;;11.85;9.58;;;;;;;39.29;21.17;99905.86;1712996;83;21434;-66
2021/08/30 09:00:46;;;;;;;11.83;9.18;;;;;;;39.47;21.27;99906.66;1723096;82;21032;-66
2021/08/30 09:03:16;;;;;;;12.25;9.85;;;;;;;39.47;21.04;99894.97;1718111;81;21540;-68
2021/08/30 09:05:43;;;;;;;13.10;11.40;;;;;;;39.51;21.27;99899.84;1697226;82;21109;-67
2021/08/30 09:08:40;;;;;;;12.55;9.25;;;;;;;39.70;21.18;99904.95;1708733;82;21011;-69
2021/08/30 09:11:02;;;;;;;13.83;11.78;;;;;;;39.81;20.64;99892.67;1708012;82;21459;-64
2021/08/30 09:13:30;;;;;;;14.87;13.38;;;;;;;39.78;20.45;99907.90;1681627;82;21069;-67
2021/08/30 09:15:59;;;;;;;13.58;11.93;;;;;;;39.41;20.62;99885.81;1711291;82;32641;-67
2021/08/30 09:18:28;;;;;;;14.18;12.47;;;;;;;39.09;20.72;99884.92;1711657;82;20972;-67
2021/08/30 09:20:54;;;;;;;13.80;12.40;;;;;;;39.03;21.46;99872.86;1704093;82;21102;-66
2021/08/30 09:23:20;;;;;;;13.55;12.15;;;;;;;39.07;21.15;99879.87;1715544;82;21140;-65
2021/08/30 09:25:47;;;;;;;17.77;11.90;;;;;;;39.07;21.72;99872.28;1711415;82;21043;-67
2021/08/30 09:28:14;;;;;;;14.98;10.85;;;;;;;39.31;21.38;99877.02;1695372;83;21054;-70
2021/08/30 09:30:40;;;;;;;13.55;11.25;;;;;;;39.46;21.28;99879.78;1715125;82;20951;-69
2021/08/30 09:33:07;;;;;;;15.50;11.15;;;;;;;39.68;21.13;99861.48;1698011;83;21123;-67
2021/08/30 09:35:33;;;;;;;13.38;11.65;;;;;;;39.86;21.26;99859.55;1673817;82;21859;-65
2021/08/30 09:38:00;;;;;;;13.95;11.97;;;;;;;39.95;20.83;99868.70;1705920;82;21402;-68
2021/08/30 09:40:28;;;;;;;14.40;12.13;;;;;;;40.16;20.36;99848.23;1704602;83;21590;-68
2021/08/30 09:42:57;;;;;;;13.25;11.97;;;;;;;40.01;20.06;99864.41;1684882;83;21062;-71
2021/08/30 09:45:26;;;;;;;13.08;11.03;;;;;;;39.79;20.02;99861.70;1715553;82;22553;-67
2021/08/30 09:48:00;;;;;;;15.08;11.12;;;;;;;39.36;20.53;99847.22;1715672;82;21129;-68
2021/08/30 09:50:33;;;;;;;12.50;10.98;;;;;;;39.47;20.83;99849.97;1715167;82;21414;-69
2021/08/30 09:53:01;;;;;;;12.07;10.68;;;;;;;39.74;20.35;99851.74;1705688;82;21767;-67
2021/08/30 09:55:28;;;;;;;12.20;10.58;;;;;;;39.70;20.27;99849.60;1715488;83;21560;-67
2021/08/30 09:57:56;;;;;;;11.83;10.63;;;;;;;39.67;20.27;99845.70;1704893;83;21097;-71
2021/08/30 10:00:23;;;;;;;13.60;11.00;;;;;;;39.83;20.19;99842.00;1715755;83;21180;-68
2021/08/30 10:02:56;;;;;;;13.62;11.40;;;;;;;39.87;20.34;99832.45;1714858;83;22385;-68
2021/08/30 10:05:25;;;;;;;12.85;11.57;;;;;;;40.16;19.98;99844.13;1723114;83;21164;-66
2021/08/30 10:07:53;;;;;;;13.83;12.37;;;;;;;40.20;19.77;99836.70;1725253;81;21034;-70
2021/08/30 10:10:24;;;;;;;13.25;11.57;;;;;;;40.13;20.13;99835.36;1737119;81;21085;-68
2021/08/30 10:12:52;;;;;;;13.32;10.05;;;;;;;40.28;19.89;99837.47;1719867;81;20952;-69
2021/08/30 10:15:21;;;;;;;11.80;9.45;;;;;;;40.12;19.54;99841.97;1716419;81;20933;-68
2021/08/30 10:17:48;;;;;;;14.47;9.88;;;;;;;40.35;19.49;99830.03;1693840;83;21071;-66
2021/08/30 10:20:22;;;;;;;12.88;9.78;;;;;;;40.37;19.51;99846.00;1724370;82;20977;-70
2021/08/30 10:23:06;;;;;;;14.93;8.60;;;;;;;40.24;19.68;99839.43;1693645;83;21525;-65
2021/08/30 10:25:34;;;;;;;14.68;8.05;;;;;;;40.00;19.58;99839.63;1721054;82;21140;-67
2021/08/30 10:28:10;;;;;;;12.78;8.80;;;;;;;39.82;19.44;99845.91;1681888;84;20936;-71
2021/08/30 10:30:42;;;;;;;11.93;8.33;;;;;;;39.75;19.41;99835.00;1725172;83;22138;-69
2021/08/30 10:33:09;;;;;;;10.93;7.78;;;;;;;39.67;19.69;99841.61;1720216;82;21076;-66
2021/08/30 10:35:38;;;;;;;12.75;8.50;;;;;;;39.71;19.19;99841.05;1715486;82;20923;-65
2021/08/30 10:38:18;;;;;;;12.35;9.10;;;;;;;39.56;19.71;99842.19;1693966;83;21174;-65
2021/08/30 10:40:50;;;;;;;13.50;9.38;;;;;;;39.46;19.58;99833.41;1726253;81;20934;-69
2021/08/30 10:43:17;;;;;;;10.35;8.58;;;;;;;39.63;19.66;99824.46;1724609;82;20906;-70
2021/08/30 10:45:56;;;;;;;10.78;9.68;;;;;;;39.82;19.34;99821.35;1724530;81;20964;-67
2021/08/30 10:48:20;;;;;;;9.48;8.10;;;;;;;39.89;19.36;99824.08;1693369;83;20996;-65
2021/08/30 10:50:50;;;;;;;8.95;8.05;;;;;;;39.84;19.54;99816.27;1725207;81;21405;-69
2021/08/30 10:53:23;;;;;;;12.15;9.13;;;;;;;39.49;19.81;99821.73;1693791;83;21013;-67
2021/08/30 10:55:55;;;;;;;10.43;9.33;;;;;;;39.66;19.84;99808.65;1722367;83;21480;-67
2021/08/30 10:58:26;;;;;;;10.93;8.78;;;;;;;39.43;19.51;99808.27;1684907;84;21508;-68
2021/08/30 11:00:55;;;;;;;12.25;8.15;;;;;;;39.49;19.71;99808.09;1723972;83;21089;-67
2021/08/30 11:03:33;;;;;;;10.58;8.50;;;;;;;39.73;19.30;99810.63;1692134;83;21168;-67
2021/08/30 11:06:10;;;;;;;13.30;8.90;;;;;;;39.95;19.14;99815.48;1681545;83;21026;-67
2021/08/30 11:08:41;;;;;;;8.75;7.83;;;;;;;40.00;19.06;99817.80;1685489;82;21109;-69
2021/08/30 11:11:27;;;;;;;12.50;7.65;;;;;;;40.17;18.79;99804.73;1716596;81;20960;-69
2021/08/30 11:14:11;;;;;;;10.08;7.25;;;;;;;40.12;18.62;99788.73;1722860;83;22113;-70
2021/08/30 11:16:38;;;;;;;10.82;7.05;;;;;;;39.91;18.53;99807.88;1712694;83;21072;-67
2021/08/30 11:19:10;;;;;;;10.43;7.00;;;;;;;39.77;18.75;99793.08;1695950;83;21043;-67
2021/08/30 11:21:47;;;;;;;12.00;6.40;;;;;;;39.82;18.70;99787.83;1708638;83;21049;-68
2021/08/30 11:24:39;;;;;;;10.95;6.45;;;;;;;40.06;19.04;99790.30;1713774;83;20932;-64
2021/08/30 11:27:09;;;;;;;9.10;7.75;;;;;;;39.96;19.28;99804.74;1710272;83;20987;-68
2021/08/30 11:29:45;;;;;;;10.10;8.58;;;;;;;40.08;18.82;99781.92;1713415;83;21527;-66
2021/08/30 11:32:13;;;;;;;8.98;8.08;;;;;;;40.03;18.65;99791.08;1712462;83;21066;-67
2021/08/30 11:34:40;;;;;;;8.65;7.35;;;;;;;40.17;18.39;99774.69;1701568;83;21037;-65
2021/08/30 11:37:09;;;;;;;10.25;7.25;;;;;;;39.91;18.90;99788.78;1698896;83;21473;-71
2021/08/30 11:39:39;;;;;;;10.40;6.97;;;;;;;39.81;18.74;99784.30;1696541;83;21152;-68